Plentywood (PWD)
Plentywood, MT
Field Elevation: 2251
Lat: 48°47.32N  Long: 104°31.39W
CTAF/Unicom Freq: 122.8000
   
     For Weather-by-Phone, call 406-765-2149
Weather Advisories
3/5/2015 02:28 Z
Altimeter 30.17" Hg
Wind 110° @ 6 KT
Gusts --
Visibility 10 SM
Temperature -19° C (-2° F)
Dewpoint -24° C (-11° F)
Relative Humidity 64%
Density Altitude --
Condensation Altitude 4,800 feet
Wind Chill -26° C (-15° F)
  Wind and Runways
Indicated Runway = 12
History
 
 
More Info
All DigiWx sites map
NOAA Forecast
 
Airport IQ 5010
(S59) Libby
(6S5) Ravalli County
 
about DigiWx
 
FAA Disclaimer: The data displayed is for advisory purposes only and is not to be used for flight planning or operations. For official data, please call 406-765-2149 to hear the current automated AWOS voice message.
  METAR PWD 050228Z AUTO 11006KT 10SM M19/M24 A3017